sensor_id;sensor_type;location;lat;lon;timestamp;P1;durP1;ratioP1;P2;durP2;ratioP2
46054;SDS011;31788;6.954;-71.872;2023-04-24T00:00:37;9.33;;;5.17;;
46054;SDS011;31788;6.954;-71.872;2023-04-24T00:03:06;11.90;;;7.10;;
46054;SDS011;31788;6.954;-71.872;2023-04-24T00:05:33;18.40;;;11.65;;
46054;SDS011;31788;6.954;-71.872;2023-04-24T00:08:03;22.15;;;11.60;;
46054;SDS011;31788;6.954;-71.872;2023-04-24T00:10:30;13.90;;;9.40;;
46054;SDS011;31788;6.954;-71.872;2023-04-24T00:12:56;13.02;;;8.20;;
46054;SDS011;31788;6.954;-71.872;2023-04-24T00:15:23;11.18;;;7.47;;
46054;SDS011;31788;6.954;-71.872;2023-04-24T00:17:49;10.13;;;6.90;;
46054;SDS011;31788;6.954;-71.872;2023-04-24T00:20:17;12.23;;;6.97;;
46054;SDS011;31788;6.954;-71.872;2023-04-24T00:22:45;8.60;;;5.93;;
46054;SDS011;31788;6.954;-71.872;2023-04-24T00:25:11;7.97;;;5.25;;
46054;SDS011;31788;6.954;-71.872;2023-04-24T00:27:38;6.63;;;4.80;;
46054;SDS011;31788;6.954;-71.872;2023-04-24T00:30:05;7.78;;;4.70;;
46054;SDS011;31788;6.954;-71.872;2023-04-24T00:32:32;7.43;;;4.32;;
46054;SDS011;31788;6.954;-71.872;2023-04-24T00:34:58;6.38;;;4.72;;
46054;SDS011;31788;6.954;-71.872;2023-04-24T00:37:26;6.05;;;4.32;;
46054;SDS011;31788;6.954;-71.872;2023-04-24T00:39:52;6.35;;;4.40;;
46054;SDS011;31788;6.954;-71.872;2023-04-24T00:42:19;7.35;;;4.50;;
46054;SDS011;31788;6.954;-71.872;2023-04-24T00:44:47;8.80;;;5.13;;
46054;SDS011;31788;6.954;-71.872;2023-04-24T00:47:13;6.50;;;4.78;;
46054;SDS011;31788;6.954;-71.872;2023-04-24T00:49:40;8.32;;;4.80;;
46054;SDS011;31788;6.954;-71.872;2023-04-24T00:52:07;7.93;;;4.18;;
46054;SDS011;31788;6.954;-71.872;2023-04-24T00:54:36;6.43;;;4.20;;
46054;SDS011;31788;6.954;-71.872;2023-04-24T00:57:03;6.53;;;4.03;;
46054;SDS011;31788;6.954;-71.872;2023-04-24T00:59:32;7.00;;;4.40;;
46054;SDS011;31788;6.954;-71.872;2023-04-24T01:01:58;6.72;;;4.35;;
46054;SDS011;31788;6.954;-71.872;2023-04-24T01:04:25;6.03;;;4.10;;
46054;SDS011;31788;6.954;-71.872;2023-04-24T01:06:52;5.75;;;4.18;;
46054;SDS011;31788;6.954;-71.872;2023-04-24T01:09:21;5.72;;;4.10;;
46054;SDS011;31788;6.954;-71.872;2023-04-24T01:11:49;5.60;;;4.10;;
46054;SDS011;31788;6.954;-71.872;2023-04-24T01:14:16;5.63;;;3.42;;
46054;SDS011;31788;6.954;-71.872;2023-04-24T01:16:43;5.57;;;3.55;;
46054;SDS011;31788;6.954;-71.872;2023-04-24T01:19:10;5.10;;;3.90;;
46054;SDS011;31788;6.954;-71.872;2023-04-24T01:21:37;6.25;;;4.13;;
46054;SDS011;31788;6.954;-71.872;2023-04-24T01:24:05;7.10;;;4.35;;
46054;SDS011;31788;6.954;-71.872;2023-04-24T01:26:32;6.38;;;3.67;;
46054;SDS011;31788;6.954;-71.872;2023-04-24T01:28:58;5.23;;;3.63;;
46054;SDS011;31788;6.954;-71.872;2023-04-24T01:31:25;4.80;;;3.47;;
46054;SDS011;31788;6.954;-71.872;2023-04-24T01:33:52;5.70;;;3.33;;
46054;SDS011;31788;6.954;-71.872;2023-04-24T01:36:20;7.20;;;3.93;;
46054;SDS011;31788;6.954;-71.872;2023-04-24T01:38:48;8.55;;;3.97;;
46054;SDS011;31788;6.954;-71.872;2023-04-24T01:41:15;7.50;;;3.47;;
46054;SDS011;31788;6.954;-71.872;2023-04-24T01:43:41;6.35;;;3.22;;
46054;SDS011;31788;6.954;-71.872;2023-04-24T01:46:08;5.93;;;3.20;;
46054;SDS011;31788;6.954;-71.872;2023-04-24T01:48:35;5.90;;;3.40;;
46054;SDS011;31788;6.954;-71.872;2023-04-24T01:51:02;7.18;;;3.17;;
46054;SDS011;31788;6.954;-71.872;2023-04-24T01:53:28;7.67;;;3.10;;
46054;SDS011;31788;6.954;-71.872;2023-04-24T01:55:55;8.57;;;3.17;;
46054;SDS011;31788;6.954;-71.872;2023-04-24T01:58:23;7.00;;;3.03;;
46054;SDS011;31788;6.954;-71.872;2023-04-24T02:00:51;4.85;;;2.45;;
46054;SDS011;31788;6.954;-71.872;2023-04-24T02:03:18;4.57;;;2.63;;
46054;SDS011;31788;6.954;-71.872;2023-04-24T02:05:45;4.30;;;2.65;;
46054;SDS011;31788;6.954;-71.872;2023-04-24T02:08:12;4.00;;;2.33;;
46054;SDS011;31788;6.954;-71.872;2023-04-24T02:10:39;5.32;;;2.60;;
46054;SDS011;31788;6.954;-71.872;2023-04-24T02:13:05;4.55;;;2.53;;
46054;SDS011;31788;6.954;-71.872;2023-04-24T02:15:32;5.05;;;2.63;;
46054;SDS011;31788;6.954;-71.872;2023-04-24T02:17:59;5.90;;;2.80;;
46054;SDS011;31788;6.954;-71.872;2023-04-24T02:20:26;5.33;;;2.67;;
46054;SDS011;31788;6.954;-71.872;2023-04-24T02:22:52;4.95;;;2.53;;
46054;SDS011;31788;6.954;-71.872;2023-04-24T02:25:19;5.30;;;2.55;;
46054;SDS011;31788;6.954;-71.872;2023-04-24T02:27:46;3.97;;;2.30;;
46054;SDS011;31788;6.954;-71.872;2023-04-24T02:30:12;6.45;;;2.75;;
46054;SDS011;31788;6.954;-71.872;2023-04-24T02:32:39;7.90;;;2.70;;
46054;SDS011;31788;6.954;-71.872;2023-04-24T02:35:06;5.15;;;2.55;;
46054;SDS011;31788;6.954;-71.872;2023-04-24T02:37:33;5.32;;;2.75;;
46054;SDS011;31788;6.954;-71.872;2023-04-24T02:39:59;4.35;;;2.42;;
46054;SDS011;31788;6.954;-71.872;2023-04-24T02:42:26;7.07;;;2.80;;
46054;SDS011;31788;6.954;-71.872;2023-04-24T02:44:53;6.72;;;2.88;;
46054;SDS011;31788;6.954;-71.872;2023-04-24T02:47:19;5.65;;;2.40;;
46054;SDS011;31788;6.954;-71.872;2023-04-24T02:49:46;6.97;;;3.10;;
46054;SDS011;31788;6.954;-71.872;2023-04-24T02:52:13;4.43;;;2.90;;
46054;SDS011;31788;6.954;-71.872;2023-04-24T02:54:40;5.60;;;2.70;;
46054;SDS011;31788;6.954;-71.872;2023-04-24T02:57:07;6.55;;;2.78;;
46054;SDS011;31788;6.954;-71.872;2023-04-24T02:59:34;4.67;;;2.80;;
46054;SDS011;31788;6.954;-71.872;2023-04-24T03:02:01;6.85;;;2.80;;
46054;SDS011;31788;6.954;-71.872;2023-04-24T03:04:27;7.70;;;3.22;;
46054;SDS011;31788;6.954;-71.872;2023-04-24T03:06:54;6.83;;;3.20;;
46054;SDS011;31788;6.954;-71.872;2023-04-24T03:09:21;6.95;;;3.10;;
46054;SDS011;31788;6.954;-71.872;2023-04-24T03:11:47;8.90;;;3.22;;
46054;SDS011;31788;6.954;-71.872;2023-04-24T03:14:14;6.40;;;3.00;;
46054;SDS011;31788;6.954;-71.872;2023-04-24T03:16:42;7.00;;;3.10;;
46054;SDS011;31788;6.954;-71.872;2023-04-24T03:19:08;5.67;;;3.03;;
46054;SDS011;31788;6.954;-71.872;2023-04-24T03:21:35;5.50;;;2.70;;
46054;SDS011;31788;6.954;-71.872;2023-04-24T03:24:06;5.97;;;2.80;;
46054;SDS011;31788;6.954;-71.872;2023-04-24T03:26:34;4.75;;;2.72;;
46054;SDS011;31788;6.954;-71.872;2023-04-24T03:29:01;6.20;;;3.20;;
46054;SDS011;31788;6.954;-71.872;2023-04-24T03:31:27;6.35;;;3.20;;
46054;SDS011;31788;6.954;-71.872;2023-04-24T03:33:55;4.78;;;2.67;;
46054;SDS011;31788;6.954;-71.872;2023-04-24T03:36:22;5.05;;;2.53;;
46054;SDS011;31788;6.954;-71.872;2023-04-24T03:38:48;4.65;;;2.38;;
46054;SDS011;31788;6.954;-71.872;2023-04-24T03:41:15;6.85;;;2.95;;
46054;SDS011;31788;6.954;-71.872;2023-04-24T03:43:41;8.63;;;3.40;;
46054;SDS011;31788;6.954;-71.872;2023-04-24T03:46:08;8.38;;;3.00;;
46054;SDS011;31788;6.954;-71.872;2023-04-24T03:48:35;7.07;;;2.67;;
46054;SDS011;31788;6.954;-71.872;2023-04-24T03:51:01;7.55;;;2.85;;
46054;SDS011;31788;6.954;-71.872;2023-04-24T03:53:28;6.63;;;2.58;;
46054;SDS011;31788;6.954;-71.872;2023-04-24T03:55:55;4.47;;;2.28;;
46054;SDS011;31788;6.954;-71.872;2023-04-24T03:58:21;5.65;;;2.83;;
46054;SDS011;31788;6.954;-71.872;2023-04-24T04:00:48;4.07;;;2.17;;
46054;SDS011;31788;6.954;-71.872;2023-04-24T04:03:15;5.85;;;2.10;;
46054;SDS011;31788;6.954;-71.872;2023-04-24T04:05:41;5.95;;;2.80;;
46054;SDS011;31788;6.954;-71.872;2023-04-24T04:08:08;4.50;;;2.20;;
46054;SDS011;31788;6.954;-71.872;2023-04-24T04:10:34;6.40;;;2.08;;
46054;SDS011;31788;6.954;-71.872;2023-04-24T04:13:01;4.65;;;2.20;;
46054;SDS011;31788;6.954;-71.872;2023-04-24T04:15:27;5.63;;;2.28;;
46054;SDS011;31788;6.954;-71.872;2023-04-24T04:17:54;3.57;;;2.23;;
46054;SDS011;31788;6.954;-71.872;2023-04-24T04:20:20;4.32;;;2.10;;
46054;SDS011;31788;6.954;-71.872;2023-04-24T04:22:47;4.10;;;2.00;;
46054;SDS011;31788;6.954;-71.872;2023-04-24T04:25:14;4.07;;;2.03;;
46054;SDS011;31788;6.954;-71.872;2023-04-24T04:27:41;3.83;;;2.13;;
46054;SDS011;31788;6.954;-71.872;2023-04-24T04:30:07;5.13;;;2.00;;
46054;SDS011;31788;6.954;-71.872;2023-04-24T04:32:35;4.50;;;2.00;;
46054;SDS011;31788;6.954;-71.872;2023-04-24T04:35:01;4.85;;;2.30;;
46054;SDS011;31788;6.954;-71.872;2023-04-24T04:37:32;2.55;;;1.70;;
46054;SDS011;31788;6.954;-71.872;2023-04-24T04:39:59;3.75;;;1.92;;
46054;SDS011;31788;6.954;-71.872;2023-04-24T04:42:26;2.80;;;1.80;;
46054;SDS011;31788;6.954;-71.872;2023-04-24T04:44:53;4.05;;;1.70;;
46054;SDS011;31788;6.954;-71.872;2023-04-24T04:47:22;4.40;;;1.80;;
46054;SDS011;31788;6.954;-71.872;2023-04-24T04:49:49;4.13;;;1.80;;
46054;SDS011;31788;6.954;-71.872;2023-04-24T04:52:19;5.37;;;1.70;;
46054;SDS011;31788;6.954;-71.872;2023-04-24T04:54:50;2.88;;;1.52;;
46054;SDS011;31788;6.954;-71.872;2023-04-24T04:57:16;3.93;;;2.13;;
46054;SDS011;31788;6.954;-71.872;2023-04-24T04:59:43;4.28;;;1.75;;
46054;SDS011;31788;6.954;-71.872;2023-04-24T05:02:10;3.58;;;1.83;;
46054;SDS011;31788;6.954;-71.872;2023-04-24T05:04:36;1.92;;;1.40;;
46054;SDS011;31788;6.954;-71.872;2023-04-24T05:07:03;4.32;;;1.50;;
46054;SDS011;31788;6.954;-71.872;2023-04-24T05:09:30;2.88;;;1.55;;
46054;SDS011;31788;6.954;-71.872;2023-04-24T05:11:57;3.47;;;1.70;;
46054;SDS011;31788;6.954;-71.872;2023-04-24T05:14:23;2.80;;;1.48;;
46054;SDS011;31788;6.954;-71.872;2023-04-24T05:16:50;3.40;;;1.60;;
46054;SDS011;31788;6.954;-71.872;2023-04-24T05:19:17;3.22;;;1.70;;
46054;SDS011;31788;6.954;-71.872;2023-04-24T05:21:43;2.13;;;1.50;;
46054;SDS011;31788;6.954;-71.872;2023-04-24T05:24:10;3.45;;;1.40;;
46054;SDS011;31788;6.954;-71.872;2023-04-24T05:26:37;2.97;;;1.40;;
46054;SDS011;31788;6.954;-71.872;2023-04-24T05:29:03;2.45;;;1.35;;
46054;SDS011;31788;6.954;-71.872;2023-04-24T05:31:30;2.50;;;1.58;;
46054;SDS011;31788;6.954;-71.872;2023-04-24T05:33:57;2.30;;;1.40;;
46054;SDS011;31788;6.954;-71.872;2023-04-24T05:36:23;3.20;;;1.30;;
46054;SDS011;31788;6.954;-71.872;2023-04-24T05:38:50;2.70;;;1.42;;
46054;SDS011;31788;6.954;-71.872;2023-04-24T05:41:16;2.27;;;1.47;;
46054;SDS011;31788;6.954;-71.872;2023-04-24T05:43:43;2.47;;;1.35;;
46054;SDS011;31788;6.954;-71.872;2023-04-24T05:46:10;2.75;;;1.52;;
46054;SDS011;31788;6.954;-71.872;2023-04-24T05:48:37;3.88;;;1.90;;
46054;SDS011;31788;6.954;-71.872;2023-04-24T05:51:04;3.95;;;1.45;;
46054;SDS011;31788;6.954;-71.872;2023-04-24T05:53:31;2.95;;;1.52;;
46054;SDS011;31788;6.954;-71.872;2023-04-24T05:55:57;3.75;;;1.58;;
46054;SDS011;31788;6.954;-71.872;2023-04-24T05:58:24;4.03;;;1.60;;
46054;SDS011;31788;6.954;-71.872;2023-04-24T06:00:50;3.90;;;1.52;;
46054;SDS011;31788;6.954;-71.872;2023-04-24T06:03:17;2.80;;;1.58;;
46054;SDS011;31788;6.954;-71.872;2023-04-24T06:05:44;2.03;;;1.40;;
46054;SDS011;31788;6.954;-71.872;2023-04-24T06:08:11;3.28;;;1.45;;
46054;SDS011;31788;6.954;-71.872;2023-04-24T06:10:37;3.35;;;1.50;;
46054;SDS011;31788;6.954;-71.872;2023-04-24T06:13:04;3.85;;;1.45;;
46054;SDS011;31788;6.954;-71.872;2023-04-24T06:15:32;3.83;;;1.67;;
46054;SDS011;31788;6.954;-71.872;2023-04-24T06:17:58;5.00;;;1.73;;
46054;SDS011;31788;6.954;-71.872;2023-04-24T06:20:25;2.50;;;1.38;;
46054;SDS011;31788;6.954;-71.872;2023-04-24T06:22:52;2.70;;;1.55;;
46054;SDS011;31788;6.954;-71.872;2023-04-24T06:25:19;2.87;;;1.50;;
46054;SDS011;31788;6.954;-71.872;2023-04-24T06:27:46;3.00;;;1.60;;
46054;SDS011;31788;6.954;-71.872;2023-04-24T06:30:12;4.50;;;1.73;;
46054;SDS011;31788;6.954;-71.872;2023-04-24T06:32:39;4.78;;;1.60;;
46054;SDS011;31788;6.954;-71.872;2023-04-24T06:35:06;3.03;;;1.50;;
46054;SDS011;31788;6.954;-71.872;2023-04-24T06:37:35;2.97;;;1.50;;
46054;SDS011;31788;6.954;-71.872;2023-04-24T06:40:01;3.90;;;1.60;;
46054;SDS011;31788;6.954;-71.872;2023-04-24T06:42:28;3.67;;;1.47;;
46054;SDS011;31788;6.954;-71.872;2023-04-24T06:44:55;2.35;;;1.40;;
46054;SDS011;31788;6.954;-71.872;2023-04-24T06:47:21;3.55;;;1.40;;
46054;SDS011;31788;6.954;-71.872;2023-04-24T06:49:48;2.40;;;1.38;;
46054;SDS011;31788;6.954;-71.872;2023-04-24T06:52:16;3.22;;;1.50;;
46054;SDS011;31788;6.954;-71.872;2023-04-24T06:54:42;3.05;;;1.30;;
46054;SDS011;31788;6.954;-71.872;2023-04-24T06:57:09;3.07;;;1.50;;
46054;SDS011;31788;6.954;-71.872;2023-04-24T06:59:36;3.08;;;1.70;;
46054;SDS011;31788;6.954;-71.872;2023-04-24T07:02:03;3.78;;;1.70;;
46054;SDS011;31788;6.954;-71.872;2023-04-24T07:04:30;3.67;;;1.48;;
46054;SDS011;31788;6.954;-71.872;2023-04-24T07:06:56;3.50;;;2.00;;
46054;SDS011;31788;6.954;-71.872;2023-04-24T07:09:24;3.10;;;1.30;;
46054;SDS011;31788;6.954;-71.872;2023-04-24T07:11:51;3.97;;;1.45;;
46054;SDS011;31788;6.954;-71.872;2023-04-24T07:14:18;6.97;;;1.60;;
46054;SDS011;31788;6.954;-71.872;2023-04-24T07:16:45;4.68;;;1.80;;
46054;SDS011;31788;6.954;-71.872;2023-04-24T07:19:12;3.25;;;1.70;;
46054;SDS011;31788;6.954;-71.872;2023-04-24T07:21:39;2.72;;;1.40;;
46054;SDS011;31788;6.954;-71.872;2023-04-24T07:24:06;3.00;;;1.67;;
46054;SDS011;31788;6.954;-71.872;2023-04-24T07:26:36;3.45;;;1.50;;
46054;SDS011;31788;6.954;-71.872;2023-04-24T07:29:04;4.30;;;1.63;;
46054;SDS011;31788;6.954;-71.872;2023-04-24T07:31:31;3.88;;;1.65;;
46054;SDS011;31788;6.954;-71.872;2023-04-24T07:33:57;3.90;;;1.67;;
46054;SDS011;31788;6.954;-71.872;2023-04-24T07:36:24;5.03;;;2.47;;
46054;SDS011;31788;6.954;-71.872;2023-04-24T07:38:51;4.07;;;1.70;;
46054;SDS011;31788;6.954;-71.872;2023-04-24T07:41:18;3.75;;;1.70;;
46054;SDS011;31788;6.954;-71.872;2023-04-24T07:43:46;3.28;;;1.50;;
46054;SDS011;31788;6.954;-71.872;2023-04-24T07:46:13;3.45;;;1.63;;
46054;SDS011;31788;6.954;-71.872;2023-04-24T07:48:39;3.53;;;1.60;;
46054;SDS011;31788;6.954;-71.872;2023-04-24T07:51:06;2.17;;;1.48;;
46054;SDS011;31788;6.954;-71.872;2023-04-24T07:53:35;3.20;;;1.63;;
46054;SDS011;31788;6.954;-71.872;2023-04-24T07:56:01;4.85;;;1.77;;
46054;SDS011;31788;6.954;-71.872;2023-04-24T07:58:28;3.75;;;1.70;;
46054;SDS011;31788;6.954;-71.872;2023-04-24T08:00:55;3.25;;;1.70;;
46054;SDS011;31788;6.954;-71.872;2023-04-24T08:03:21;3.83;;;1.70;;
46054;SDS011;31788;6.954;-71.872;2023-04-24T08:05:49;3.23;;;1.77;;
46054;SDS011;31788;6.954;-71.872;2023-04-24T08:08:16;4.22;;;2.00;;
46054;SDS011;31788;6.954;-71.872;2023-04-24T08:10:43;2.93;;;1.80;;
46054;SDS011;31788;6.954;-71.872;2023-04-24T08:13:10;4.78;;;2.10;;
46054;SDS011;31788;6.954;-71.872;2023-04-24T08:15:36;4.90;;;1.83;;
46054;SDS011;31788;6.954;-71.872;2023-04-24T08:18:03;3.05;;;1.83;;
46054;SDS011;31788;6.954;-71.872;2023-04-24T08:20:30;3.95;;;2.10;;
46054;SDS011;31788;6.954;-71.872;2023-04-24T08:22:56;3.53;;;2.00;;
46054;SDS011;31788;6.954;-71.872;2023-04-24T08:25:23;3.92;;;1.80;;
46054;SDS011;31788;6.954;-71.872;2023-04-24T08:27:50;4.20;;;1.67;;
46054;SDS011;31788;6.954;-71.872;2023-04-24T08:30:17;3.58;;;1.80;;
46054;SDS011;31788;6.954;-71.872;2023-04-24T08:32:44;5.90;;;1.85;;
46054;SDS011;31788;6.954;-71.872;2023-04-24T08:35:10;4.13;;;1.80;;
46054;SDS011;31788;6.954;-71.872;2023-04-24T08:37:37;2.35;;;1.60;;
46054;SDS011;31788;6.954;-71.872;2023-04-24T08:40:06;3.97;;;1.63;;
46054;SDS011;31788;6.954;-71.872;2023-04-24T08:42:43;4.47;;;1.83;;
46054;SDS011;31788;6.954;-71.872;2023-04-24T08:45:11;4.10;;;2.00;;
46054;SDS011;31788;6.954;-71.872;2023-04-24T08:47:39;3.30;;;1.80;;
46054;SDS011;31788;6.954;-71.872;2023-04-24T08:50:07;3.33;;;1.85;;
46054;SDS011;31788;6.954;-71.872;2023-04-24T08:52:35;3.63;;;1.98;;
46054;SDS011;31788;6.954;-71.872;2023-04-24T08:55:02;4.65;;;2.20;;
46054;SDS011;31788;6.954;-71.872;2023-04-24T08:57:29;5.10;;;2.20;;
46054;SDS011;31788;6.954;-71.872;2023-04-24T08:59:56;3.70;;;2.17;;
46054;SDS011;31788;6.954;-71.872;2023-04-24T09:02:24;3.60;;;2.17;;
46054;SDS011;31788;6.954;-71.872;2023-04-24T09:04:52;4.05;;;2.13;;
46054;SDS011;31788;6.954;-71.872;2023-04-24T09:07:19;3.57;;;2.00;;
46054;SDS011;31788;6.954;-71.872;2023-04-24T09:09:47;3.97;;;2.00;;
46054;SDS011;31788;6.954;-71.872;2023-04-24T09:12:16;3.42;;;1.83;;
46054;SDS011;31788;6.954;-71.872;2023-04-24T09:14:43;3.75;;;2.00;;
46054;SDS011;31788;6.954;-71.872;2023-04-24T09:17:11;3.33;;;1.90;;
46054;SDS011;31788;6.954;-71.872;2023-04-24T09:19:38;4.25;;;2.22;;
46054;SDS011;31788;6.954;-71.872;2023-04-24T09:22:05;3.40;;;1.90;;
46054;SDS011;31788;6.954;-71.872;2023-04-24T09:24:33;3.83;;;1.80;;
46054;SDS011;31788;6.954;-71.872;2023-04-24T09:27:01;4.75;;;2.25;;
46054;SDS011;31788;6.954;-71.872;2023-04-24T09:29:29;4.97;;;2.27;;
46054;SDS011;31788;6.954;-71.872;2023-04-24T09:31:58;3.58;;;1.90;;
46054;SDS011;31788;6.954;-71.872;2023-04-24T09:34:26;4.60;;;2.00;;
46054;SDS011;31788;6.954;-71.872;2023-04-24T09:36:53;6.30;;;2.27;;
46054;SDS011;31788;6.954;-71.872;2023-04-24T09:39:20;5.57;;;2.60;;
46054;SDS011;31788;6.954;-71.872;2023-04-24T09:41:48;3.78;;;2.10;;
46054;SDS011;31788;6.954;-71.872;2023-04-24T09:44:19;3.43;;;2.00;;
46054;SDS011;31788;6.954;-71.872;2023-04-24T09:46:50;4.63;;;2.40;;
46054;SDS011;31788;6.954;-71.872;2023-04-24T09:49:23;3.40;;;2.03;;
46054;SDS011;31788;6.954;-71.872;2023-04-24T09:51:51;3.60;;;1.92;;
46054;SDS011;31788;6.954;-71.872;2023-04-24T09:54:27;4.70;;;2.03;;
46054;SDS011;31788;6.954;-71.872;2023-04-24T09:56:55;5.67;;;2.07;;
46054;SDS011;31788;6.954;-71.872;2023-04-24T09:59:22;4.80;;;2.05;;
46054;SDS011;31788;6.954;-71.872;2023-04-24T10:01:49;3.80;;;2.28;;
46054;SDS011;31788;6.954;-71.872;2023-04-24T10:04:19;4.30;;;2.00;;
46054;SDS011;31788;6.954;-71.872;2023-04-24T10:06:51;7.85;;;2.10;;
46054;SDS011;31788;6.954;-71.872;2023-04-24T10:09:23;4.32;;;2.10;;
46054;SDS011;31788;6.954;-71.872;2023-04-24T10:11:52;5.23;;;2.20;;
46054;SDS011;31788;6.954;-71.872;2023-04-24T10:14:23;5.65;;;2.20;;
46054;SDS011;31788;6.954;-71.872;2023-04-24T10:16:54;6.88;;;2.20;;
46054;SDS011;31788;6.954;-71.872;2023-04-24T10:19:25;3.50;;;2.15;;
46054;SDS011;31788;6.954;-71.872;2023-04-24T10:21:51;5.50;;;2.45;;
46054;SDS011;31788;6.954;-71.872;2023-04-24T10:24:20;3.80;;;2.37;;
46054;SDS011;31788;6.954;-71.872;2023-04-24T10:26:47;3.78;;;2.50;;
46054;SDS011;31788;6.954;-71.872;2023-04-24T10:29:15;5.00;;;2.60;;
46054;SDS011;31788;6.954;-71.872;2023-04-24T10:31:43;5.40;;;2.67;;
46054;SDS011;31788;6.954;-71.872;2023-04-24T10:34:11;4.93;;;2.80;;
46054;SDS011;31788;6.954;-71.872;2023-04-24T10:36:55;4.60;;;2.40;;
46054;SDS011;31788;6.954;-71.872;2023-04-24T10:39:23;5.57;;;2.70;;
46054;SDS011;31788;6.954;-71.872;2023-04-24T10:41:50;5.55;;;2.92;;
46054;SDS011;31788;6.954;-71.872;2023-04-24T10:44:16;4.90;;;2.65;;
46054;SDS011;31788;6.954;-71.872;2023-04-24T10:46:43;4.83;;;2.60;;
46054;SDS011;31788;6.954;-71.872;2023-04-24T10:49:13;5.20;;;2.58;;
46054;SDS011;31788;6.954;-71.872;2023-04-24T10:51:47;6.53;;;2.60;;
46054;SDS011;31788;6.954;-71.872;2023-04-24T10:59:43;4.45;;;2.60;;
46054;SDS011;31788;6.954;-71.872;2023-04-24T11:02:11;4.40;;;2.63;;
46054;SDS011;31788;6.954;-71.872;2023-04-24T11:04:41;4.68;;;2.90;;
46054;SDS011;31788;6.954;-71.872;2023-04-24T11:07:11;6.07;;;2.70;;
46054;SDS011;31788;6.954;-71.872;2023-04-24T11:09:38;6.13;;;2.60;;
46054;SDS011;31788;6.954;-71.872;2023-04-24T11:12:09;5.30;;;2.80;;
46054;SDS011;31788;6.954;-71.872;2023-04-24T11:17:33;4.20;;;2.40;;
46054;SDS011;31788;6.954;-71.872;2023-04-24T11:20:03;5.40;;;2.13;;
46054;SDS011;31788;6.954;-71.872;2023-04-24T11:22:38;4.70;;;2.40;;
46054;SDS011;31788;6.954;-71.872;2023-04-24T11:25:10;4.95;;;2.50;;
46054;SDS011;31788;6.954;-71.872;2023-04-24T11:27:41;5.70;;;2.55;;
46054;SDS011;31788;6.954;-71.872;2023-04-24T11:30:09;7.50;;;2.33;;
46054;SDS011;31788;6.954;-71.872;2023-04-24T11:32:36;4.78;;;2.30;;
46054;SDS011;31788;6.954;-71.872;2023-04-24T11:35:14;3.50;;;2.10;;
46054;SDS011;31788;6.954;-71.872;2023-04-24T11:37:49;4.93;;;2.20;;
46054;SDS011;31788;6.954;-71.872;2023-04-24T11:40:18;3.70;;;2.10;;
46054;SDS011;31788;6.954;-71.872;2023-04-24T11:42:46;4.57;;;2.33;;
46054;SDS011;31788;6.954;-71.872;2023-04-24T11:45:15;5.93;;;2.22;;
46054;SDS011;31788;6.954;-71.872;2023-04-24T11:47:43;4.55;;;2.20;;
46054;SDS011;31788;6.954;-71.872;2023-04-24T11:50:11;4.10;;;2.17;;
46054;SDS011;31788;6.954;-71.872;2023-04-24T11:52:40;4.03;;;2.20;;
46054;SDS011;31788;6.954;-71.872;2023-04-24T11:57:42;4.40;;;2.15;;
46054;SDS011;31788;6.954;-71.872;2023-04-24T12:00:18;4.32;;;2.53;;
46054;SDS011;31788;6.954;-71.872;2023-04-24T12:02:46;6.63;;;2.50;;
46054;SDS011;31788;6.954;-71.872;2023-04-24T12:05:23;6.57;;;2.20;;
46054;SDS011;31788;6.954;-71.872;2023-04-24T12:07:51;5.60;;;3.10;;
46054;SDS011;31788;6.954;-71.872;2023-04-24T12:10:22;4.82;;;2.58;;
46054;SDS011;31788;6.954;-71.872;2023-04-24T12:12:50;5.72;;;2.58;;
46054;SDS011;31788;6.954;-71.872;2023-04-24T12:15:18;3.83;;;2.22;;
46054;SDS011;31788;6.954;-71.872;2023-04-24T12:17:46;3.33;;;2.35;;
46054;SDS011;31788;6.954;-71.872;2023-04-24T12:20:15;3.80;;;2.47;;
46054;SDS011;31788;6.954;-71.872;2023-04-24T12:22:43;4.05;;;2.40;;
46054;SDS011;31788;6.954;-71.872;2023-04-24T12:25:20;5.70;;;2.60;;
46054;SDS011;31788;6.954;-71.872;2023-04-24T12:27:52;4.07;;;2.42;;
46054;SDS011;31788;6.954;-71.872;2023-04-24T12:30:33;5.25;;;2.50;;
46054;SDS011;31788;6.954;-71.872;2023-04-24T12:33:02;7.15;;;2.80;;
46054;SDS011;31788;6.954;-71.872;2023-04-24T12:35:30;4.53;;;2.50;;
46054;SDS011;31788;6.954;-71.872;2023-04-24T12:40:35;4.17;;;2.50;;
46054;SDS011;31788;6.954;-71.872;2023-04-24T12:43:02;4.55;;;2.17;;
46054;SDS011;31788;6.954;-71.872;2023-04-24T12:45:38;4.75;;;2.33;;
46054;SDS011;31788;6.954;-71.872;2023-04-24T12:48:05;3.00;;;2.00;;
46054;SDS011;31788;6.954;-71.872;2023-04-24T12:50:31;3.38;;;2.30;;
46054;SDS011;31788;6.954;-71.872;2023-04-24T12:52:58;4.13;;;2.10;;
46054;SDS011;31788;6.954;-71.872;2023-04-24T12:55:30;3.67;;;1.90;;
46054;SDS011;31788;6.954;-71.872;2023-04-24T12:57:56;4.65;;;2.05;;
46054;SDS011;31788;6.954;-71.872;2023-04-24T13:00:23;3.50;;;1.90;;
46054;SDS011;31788;6.954;-71.872;2023-04-24T13:02:50;4.53;;;2.20;;
46054;SDS011;31788;6.954;-71.872;2023-04-24T13:05:16;2.92;;;1.85;;
46054;SDS011;31788;6.954;-71.872;2023-04-24T13:07:43;4.30;;;1.83;;
46054;SDS011;31788;6.954;-71.872;2023-04-24T13:10:10;3.28;;;1.75;;
46054;SDS011;31788;6.954;-71.872;2023-04-24T13:12:36;4.45;;;1.85;;
46054;SDS011;31788;6.954;-71.872;2023-04-24T13:15:04;2.33;;;1.60;;
46054;SDS011;31788;6.954;-71.872;2023-04-24T13:17:31;3.72;;;1.70;;
46054;SDS011;31788;6.954;-71.872;2023-04-24T13:19:58;3.40;;;1.80;;
46054;SDS011;31788;6.954;-71.872;2023-04-24T13:22:25;2.25;;;1.60;;
46054;SDS011;31788;6.954;-71.872;2023-04-24T13:24:52;2.58;;;1.70;;
46054;SDS011;31788;6.954;-71.872;2023-04-24T13:27:19;3.00;;;1.55;;
46054;SDS011;31788;6.954;-71.872;2023-04-24T13:29:45;3.63;;;1.73;;
46054;SDS011;31788;6.954;-71.872;2023-04-24T13:32:12;3.70;;;2.00;;
46054;SDS011;31788;6.954;-71.872;2023-04-24T13:34:39;3.40;;;1.73;;
46054;SDS011;31788;6.954;-71.872;2023-04-24T13:37:05;3.95;;;1.70;;
46054;SDS011;31788;6.954;-71.872;2023-04-24T13:39:33;3.97;;;1.80;;
46054;SDS011;31788;6.954;-71.872;2023-04-24T13:42:00;3.25;;;1.80;;
46054;SDS011;31788;6.954;-71.872;2023-04-24T13:44:27;3.75;;;1.70;;
46054;SDS011;31788;6.954;-71.872;2023-04-24T13:46:54;5.15;;;1.80;;
46054;SDS011;31788;6.954;-71.872;2023-04-24T13:49:22;2.80;;;1.70;;
46054;SDS011;31788;6.954;-71.872;2023-04-24T13:51:51;4.95;;;1.70;;
46054;SDS011;31788;6.954;-71.872;2023-04-24T13:54:18;4.63;;;1.80;;
46054;SDS011;31788;6.954;-71.872;2023-04-24T13:56:45;3.10;;;1.92;;
46054;SDS011;31788;6.954;-71.872;2023-04-24T13:59:12;2.92;;;2.00;;
46054;SDS011;31788;6.954;-71.872;2023-04-24T14:01:38;3.03;;;1.63;;
46054;SDS011;31788;6.954;-71.872;2023-04-24T14:04:05;4.97;;;1.60;;
46054;SDS011;31788;6.954;-71.872;2023-04-24T14:06:32;3.00;;;1.60;;
46054;SDS011;31788;6.954;-71.872;2023-04-24T14:08:58;3.28;;;1.98;;
46054;SDS011;31788;6.954;-71.872;2023-04-24T14:11:25;4.53;;;1.75;;
46054;SDS011;31788;6.954;-71.872;2023-04-24T14:13:52;3.03;;;1.52;;
46054;SDS011;31788;6.954;-71.872;2023-04-24T14:16:21;3.83;;;1.50;;
46054;SDS011;31788;6.954;-71.872;2023-04-24T14:18:48;3.30;;;1.80;;
46054;SDS011;31788;6.954;-71.872;2023-04-24T14:21:15;4.07;;;1.77;;
46054;SDS011;31788;6.954;-71.872;2023-04-24T14:23:42;3.22;;;1.73;;
46054;SDS011;31788;6.954;-71.872;2023-04-24T14:26:09;4.75;;;1.60;;
46054;SDS011;31788;6.954;-71.872;2023-04-24T14:28:36;2.60;;;1.63;;
46054;SDS011;31788;6.954;-71.872;2023-04-24T14:31:02;2.88;;;1.58;;
46054;SDS011;31788;6.954;-71.872;2023-04-24T14:33:29;2.88;;;1.70;;
46054;SDS011;31788;6.954;-71.872;2023-04-24T14:35:55;5.13;;;1.95;;
46054;SDS011;31788;6.954;-71.872;2023-04-24T14:38:22;3.85;;;1.77;;
46054;SDS011;31788;6.954;-71.872;2023-04-24T14:40:49;3.25;;;1.77;;
46054;SDS011;31788;6.954;-71.872;2023-04-24T14:43:15;3.42;;;1.75;;
46054;SDS011;31788;6.954;-71.872;2023-04-24T14:45:42;3.63;;;1.70;;
46054;SDS011;31788;6.954;-71.872;2023-04-24T14:48:08;2.40;;;1.70;;